sensor_id;sensor_type;location;lat;lon;timestamp;P1;durP1;ratioP1;P2;durP2;ratioP2
14235;SDS011;7202;50.718;7.072;2023-04-07T00:00:32;9.95;;;7.80;;
14235;SDS011;7202;50.718;7.072;2023-04-07T00:03:02;10.93;;;8.15;;
14235;SDS011;7202;50.718;7.072;2023-04-07T00:05:33;10.07;;;8.38;;
14235;SDS011;7202;50.718;7.072;2023-04-07T00:08:02;12.00;;;8.57;;
14235;SDS011;7202;50.718;7.072;2023-04-07T00:10:30;10.77;;;9.20;;
14235;SDS011;7202;50.718;7.072;2023-04-07T00:12:59;11.85;;;8.55;;
14235;SDS011;7202;50.718;7.072;2023-04-07T00:15:28;11.15;;;8.57;;
14235;SDS011;7202;50.718;7.072;2023-04-07T00:17:56;10.10;;;8.18;;
14235;SDS011;7202;50.718;7.072;2023-04-07T00:20:26;10.00;;;8.40;;
14235;SDS011;7202;50.718;7.072;2023-04-07T00:22:55;10.30;;;7.93;;
14235;SDS011;7202;50.718;7.072;2023-04-07T00:25:24;12.57;;;8.90;;
14235;SDS011;7202;50.718;7.072;2023-04-07T00:27:52;12.07;;;9.38;;
14235;SDS011;7202;50.718;7.072;2023-04-07T00:30:21;11.20;;;8.60;;
14235;SDS011;7202;50.718;7.072;2023-04-07T00:32:50;10.75;;;8.85;;
14235;SDS011;7202;50.718;7.072;2023-04-07T00:35:19;11.45;;;8.90;;
14235;SDS011;7202;50.718;7.072;2023-04-07T00:37:49;11.27;;;8.73;;
14235;SDS011;7202;50.718;7.072;2023-04-07T00:40:18;12.80;;;8.55;;
14235;SDS011;7202;50.718;7.072;2023-04-07T00:42:47;10.38;;;8.82;;
14235;SDS011;7202;50.718;7.072;2023-04-07T00:45:15;12.27;;;9.50;;
14235;SDS011;7202;50.718;7.072;2023-04-07T00:47:44;10.63;;;8.88;;
14235;SDS011;7202;50.718;7.072;2023-04-07T00:50:13;13.07;;;9.00;;
14235;SDS011;7202;50.718;7.072;2023-04-07T00:52:42;10.68;;;9.00;;
14235;SDS011;7202;50.718;7.072;2023-04-07T00:55:12;10.35;;;8.93;;
14235;SDS011;7202;50.718;7.072;2023-04-07T00:57:41;12.13;;;9.77;;
14235;SDS011;7202;50.718;7.072;2023-04-07T01:00:12;13.55;;;10.05;;
14235;SDS011;7202;50.718;7.072;2023-04-07T01:02:43;14.35;;;10.00;;
14235;SDS011;7202;50.718;7.072;2023-04-07T01:05:17;11.32;;;8.70;;
14235;SDS011;7202;50.718;7.072;2023-04-07T01:07:56;12.65;;;8.88;;
14235;SDS011;7202;50.718;7.072;2023-04-07T01:10:34;14.00;;;9.60;;
14235;SDS011;7202;50.718;7.072;2023-04-07T01:13:16;12.18;;;9.50;;
14235;SDS011;7202;50.718;7.072;2023-04-07T01:15:54;12.02;;;9.23;;
14235;SDS011;7202;50.718;7.072;2023-04-07T01:18:28;11.90;;;9.05;;
14235;SDS011;7202;50.718;7.072;2023-04-07T01:21:01;14.05;;;10.00;;
14235;SDS011;7202;50.718;7.072;2023-04-07T01:23:38;12.93;;;9.75;;
14235;SDS011;7202;50.718;7.072;2023-04-07T01:26:19;13.82;;;9.65;;
14235;SDS011;7202;50.718;7.072;2023-04-07T01:32:03;11.82;;;9.00;;
14235;SDS011;7202;50.718;7.072;2023-04-07T01:34:34;12.85;;;8.90;;
14235;SDS011;7202;50.718;7.072;2023-04-07T01:37:05;10.93;;;8.30;;
14235;SDS011;7202;50.718;7.072;2023-04-07T01:39:35;11.48;;;9.05;;
14235;SDS011;7202;50.718;7.072;2023-04-07T01:42:05;11.60;;;8.45;;
14235;SDS011;7202;50.718;7.072;2023-04-07T01:44:35;9.30;;;7.88;;
14235;SDS011;7202;50.718;7.072;2023-04-07T01:47:05;12.90;;;8.82;;
14235;SDS011;7202;50.718;7.072;2023-04-07T01:49:34;11.27;;;9.02;;
14235;SDS011;7202;50.718;7.072;2023-04-07T01:52:04;12.25;;;8.35;;
14235;SDS011;7202;50.718;7.072;2023-04-07T01:54:34;13.73;;;8.68;;
14235;SDS011;7202;50.718;7.072;2023-04-07T01:57:03;11.68;;;8.88;;
14235;SDS011;7202;50.718;7.072;2023-04-07T01:59:32;13.27;;;8.98;;
14235;SDS011;7202;50.718;7.072;2023-04-07T02:02:02;10.82;;;8.48;;
14235;SDS011;7202;50.718;7.072;2023-04-07T02:04:34;11.15;;;8.60;;
14235;SDS011;7202;50.718;7.072;2023-04-07T02:07:08;10.23;;;7.72;;
14235;SDS011;7202;50.718;7.072;2023-04-07T02:09:46;11.60;;;9.30;;
14235;SDS011;7202;50.718;7.072;2023-04-07T02:12:17;15.35;;;9.57;;
14235;SDS011;7202;50.718;7.072;2023-04-07T02:14:58;14.63;;;10.77;;
14235;SDS011;7202;50.718;7.072;2023-04-07T02:17:28;13.45;;;10.38;;
14235;SDS011;7202;50.718;7.072;2023-04-07T02:20:02;12.13;;;10.07;;
14235;SDS011;7202;50.718;7.072;2023-04-07T02:22:32;16.48;;;11.95;;
14235;SDS011;7202;50.718;7.072;2023-04-07T02:25:01;16.67;;;12.00;;
14235;SDS011;7202;50.718;7.072;2023-04-07T02:27:30;17.52;;;12.15;;
14235;SDS011;7202;50.718;7.072;2023-04-07T02:29:59;16.40;;;12.43;;
14235;SDS011;7202;50.718;7.072;2023-04-07T02:32:28;17.35;;;12.73;;
14235;SDS011;7202;50.718;7.072;2023-04-07T02:34:57;21.38;;;13.27;;
14235;SDS011;7202;50.718;7.072;2023-04-07T02:37:27;20.75;;;13.57;;
14235;SDS011;7202;50.718;7.072;2023-04-07T02:39:55;19.60;;;13.90;;
14235;SDS011;7202;50.718;7.072;2023-04-07T02:42:24;21.45;;;14.45;;
14235;SDS011;7202;50.718;7.072;2023-04-07T02:44:54;21.63;;;14.45;;
14235;SDS011;7202;50.718;7.072;2023-04-07T02:47:23;22.15;;;13.82;;
14235;SDS011;7202;50.718;7.072;2023-04-07T02:49:52;20.55;;;13.25;;
14235;SDS011;7202;50.718;7.072;2023-04-07T02:52:20;22.23;;;15.25;;
14235;SDS011;7202;50.718;7.072;2023-04-07T02:54:50;26.38;;;16.38;;
14235;SDS011;7202;50.718;7.072;2023-04-07T02:57:23;21.27;;;15.40;;
14235;SDS011;7202;50.718;7.072;2023-04-07T02:59:56;23.20;;;15.48;;
14235;SDS011;7202;50.718;7.072;2023-04-07T03:02:34;24.67;;;16.00;;
14235;SDS011;7202;50.718;7.072;2023-04-07T03:05:03;22.30;;;16.00;;
14235;SDS011;7202;50.718;7.072;2023-04-07T03:07:33;24.92;;;16.15;;
14235;SDS011;7202;50.718;7.072;2023-04-07T03:10:04;25.65;;;16.80;;
14235;SDS011;7202;50.718;7.072;2023-04-07T03:12:33;27.27;;;16.88;;
14235;SDS011;7202;50.718;7.072;2023-04-07T03:15:02;26.20;;;17.38;;
14235;SDS011;7202;50.718;7.072;2023-04-07T03:17:32;29.30;;;17.42;;
14235;SDS011;7202;50.718;7.072;2023-04-07T03:20:02;27.17;;;16.88;;
14235;SDS011;7202;50.718;7.072;2023-04-07T03:22:33;26.02;;;17.45;;
14235;SDS011;7202;50.718;7.072;2023-04-07T03:25:08;27.33;;;17.25;;
14235;SDS011;7202;50.718;7.072;2023-04-07T03:27:37;27.73;;;17.52;;
14235;SDS011;7202;50.718;7.072;2023-04-07T03:30:08;30.35;;;18.83;;
14235;SDS011;7202;50.718;7.072;2023-04-07T03:32:37;30.25;;;18.67;;
14235;SDS011;7202;50.718;7.072;2023-04-07T03:35:07;28.15;;;17.52;;
14235;SDS011;7202;50.718;7.072;2023-04-07T03:37:36;30.70;;;17.90;;
14235;SDS011;7202;50.718;7.072;2023-04-07T03:40:12;27.83;;;17.35;;
14235;SDS011;7202;50.718;7.072;2023-04-07T03:42:41;23.90;;;15.15;;
14235;SDS011;7202;50.718;7.072;2023-04-07T03:45:12;28.48;;;18.10;;
14235;SDS011;7202;50.718;7.072;2023-04-07T03:47:45;29.67;;;18.20;;
14235;SDS011;7202;50.718;7.072;2023-04-07T03:50:15;27.17;;;17.50;;
14235;SDS011;7202;50.718;7.072;2023-04-07T03:52:51;29.98;;;18.05;;
14235;SDS011;7202;50.718;7.072;2023-04-07T03:55:26;29.25;;;17.58;;
14235;SDS011;7202;50.718;7.072;2023-04-07T03:58:00;29.30;;;18.35;;
14235;SDS011;7202;50.718;7.072;2023-04-07T04:00:32;30.63;;;19.05;;
14235;SDS011;7202;50.718;7.072;2023-04-07T04:03:06;29.70;;;17.58;;
14235;SDS011;7202;50.718;7.072;2023-04-07T04:05:40;28.88;;;18.88;;
14235;SDS011;7202;50.718;7.072;2023-04-07T04:08:14;31.75;;;19.23;;
14235;SDS011;7202;50.718;7.072;2023-04-07T04:10:44;33.72;;;20.30;;
14235;SDS011;7202;50.718;7.072;2023-04-07T04:13:13;32.05;;;19.35;;
14235;SDS011;7202;50.718;7.072;2023-04-07T04:15:42;29.95;;;19.60;;
14235;SDS011;7202;50.718;7.072;2023-04-07T04:18:14;32.70;;;19.88;;
14235;SDS011;7202;50.718;7.072;2023-04-07T04:20:42;34.10;;;19.25;;
14235;SDS011;7202;50.718;7.072;2023-04-07T04:23:11;32.08;;;19.40;;
14235;SDS011;7202;50.718;7.072;2023-04-07T04:25:41;33.75;;;20.05;;
14235;SDS011;7202;50.718;7.072;2023-04-07T04:28:12;34.38;;;21.23;;
14235;SDS011;7202;50.718;7.072;2023-04-07T04:30:41;32.13;;;19.27;;
14235;SDS011;7202;50.718;7.072;2023-04-07T04:33:10;32.17;;;19.90;;
14235;SDS011;7202;50.718;7.072;2023-04-07T04:35:47;32.17;;;20.75;;
14235;SDS011;7202;50.718;7.072;2023-04-07T04:38:18;33.08;;;20.88;;
14235;SDS011;7202;50.718;7.072;2023-04-07T04:41:00;35.60;;;20.42;;
14235;SDS011;7202;50.718;7.072;2023-04-07T04:43:31;40.55;;;22.25;;
14235;SDS011;7202;50.718;7.072;2023-04-07T04:46:02;32.92;;;22.15;;
14235;SDS011;7202;50.718;7.072;2023-04-07T04:48:35;34.00;;;21.08;;
14235;SDS011;7202;50.718;7.072;2023-04-07T04:51:06;36.15;;;21.60;;
14235;SDS011;7202;50.718;7.072;2023-04-07T04:53:36;36.17;;;21.85;;
14235;SDS011;7202;50.718;7.072;2023-04-07T04:56:06;33.13;;;21.70;;
14235;SDS011;7202;50.718;7.072;2023-04-07T04:58:42;35.72;;;22.02;;
14235;SDS011;7202;50.718;7.072;2023-04-07T05:01:19;37.85;;;21.30;;
14235;SDS011;7202;50.718;7.072;2023-04-07T05:03:59;33.75;;;21.83;;
14235;SDS011;7202;50.718;7.072;2023-04-07T05:06:29;34.58;;;21.25;;
14235;SDS011;7202;50.718;7.072;2023-04-07T05:09:04;31.30;;;20.45;;
14235;SDS011;7202;50.718;7.072;2023-04-07T05:11:40;34.28;;;21.90;;
14235;SDS011;7202;50.718;7.072;2023-04-07T05:14:10;33.20;;;22.48;;
14235;SDS011;7202;50.718;7.072;2023-04-07T05:16:43;32.38;;;21.65;;
14235;SDS011;7202;50.718;7.072;2023-04-07T05:19:17;32.78;;;21.08;;
14235;SDS011;7202;50.718;7.072;2023-04-07T05:21:47;32.13;;;20.38;;
14235;SDS011;7202;50.718;7.072;2023-04-07T05:24:18;33.25;;;21.08;;
14235;SDS011;7202;50.718;7.072;2023-04-07T05:26:52;36.60;;;19.67;;
14235;SDS011;7202;50.718;7.072;2023-04-07T05:29:24;41.38;;;22.20;;
14235;SDS011;7202;50.718;7.072;2023-04-07T05:31:54;32.78;;;22.00;;
14235;SDS011;7202;50.718;7.072;2023-04-07T05:34:23;30.10;;;21.10;;
14235;SDS011;7202;50.718;7.072;2023-04-07T05:36:54;30.48;;;20.27;;
14235;SDS011;7202;50.718;7.072;2023-04-07T05:39:23;33.63;;;21.20;;
14235;SDS011;7202;50.718;7.072;2023-04-07T05:41:54;35.30;;;20.55;;
14235;SDS011;7202;50.718;7.072;2023-04-07T05:44:27;33.53;;;21.88;;
14235;SDS011;7202;50.718;7.072;2023-04-07T05:46:56;31.23;;;20.55;;
14235;SDS011;7202;50.718;7.072;2023-04-07T05:49:26;32.63;;;21.00;;
14235;SDS011;7202;50.718;7.072;2023-04-07T05:52:01;37.95;;;22.58;;
14235;SDS011;7202;50.718;7.072;2023-04-07T05:54:35;32.78;;;21.02;;
14235;SDS011;7202;50.718;7.072;2023-04-07T05:57:04;32.50;;;21.70;;
14235;SDS011;7202;50.718;7.072;2023-04-07T05:59:36;32.80;;;21.48;;
14235;SDS011;7202;50.718;7.072;2023-04-07T06:02:05;33.30;;;21.00;;
14235;SDS011;7202;50.718;7.072;2023-04-07T06:04:34;34.55;;;21.08;;
14235;SDS011;7202;50.718;7.072;2023-04-07T06:07:07;31.05;;;20.70;;
14235;SDS011;7202;50.718;7.072;2023-04-07T06:09:35;33.65;;;21.63;;
14235;SDS011;7202;50.718;7.072;2023-04-07T06:12:04;31.95;;;21.02;;
14235;SDS011;7202;50.718;7.072;2023-04-07T06:14:33;33.17;;;21.40;;
14235;SDS011;7202;50.718;7.072;2023-04-07T06:17:03;33.50;;;20.52;;
14235;SDS011;7202;50.718;7.072;2023-04-07T06:19:32;32.70;;;20.38;;
14235;SDS011;7202;50.718;7.072;2023-04-07T06:22:00;28.00;;;19.30;;
14235;SDS011;7202;50.718;7.072;2023-04-07T06:24:30;33.40;;;22.08;;
14235;SDS011;7202;50.718;7.072;2023-04-07T06:26:59;33.80;;;19.88;;
14235;SDS011;7202;50.718;7.072;2023-04-07T06:29:27;37.58;;;20.25;;
14235;SDS011;7202;50.718;7.072;2023-04-07T06:31:56;30.85;;;20.13;;
14235;SDS011;7202;50.718;7.072;2023-04-07T06:34:26;31.38;;;19.42;;
14235;SDS011;7202;50.718;7.072;2023-04-07T06:36:55;30.38;;;19.23;;
14235;SDS011;7202;50.718;7.072;2023-04-07T06:39:25;35.20;;;20.73;;
14235;SDS011;7202;50.718;7.072;2023-04-07T06:41:54;28.23;;;19.55;;
14235;SDS011;7202;50.718;7.072;2023-04-07T06:44:23;29.65;;;19.65;;
14235;SDS011;7202;50.718;7.072;2023-04-07T06:46:52;34.58;;;19.75;;
14235;SDS011;7202;50.718;7.072;2023-04-07T06:49:21;30.90;;;19.23;;
14235;SDS011;7202;50.718;7.072;2023-04-07T06:51:52;33.60;;;18.90;;
14235;SDS011;7202;50.718;7.072;2023-04-07T06:54:21;31.45;;;18.30;;
14235;SDS011;7202;50.718;7.072;2023-04-07T06:56:50;28.90;;;17.88;;
14235;SDS011;7202;50.718;7.072;2023-04-07T06:59:20;27.05;;;17.70;;
14235;SDS011;7202;50.718;7.072;2023-04-07T07:01:49;26.75;;;17.58;;
14235;SDS011;7202;50.718;7.072;2023-04-07T07:04:17;26.08;;;17.20;;
14235;SDS011;7202;50.718;7.072;2023-04-07T07:06:46;26.73;;;17.02;;
14235;SDS011;7202;50.718;7.072;2023-04-07T07:09:16;27.17;;;16.15;;
14235;SDS011;7202;50.718;7.072;2023-04-07T07:11:45;25.02;;;16.20;;
14235;SDS011;7202;50.718;7.072;2023-04-07T07:14:13;21.33;;;15.18;;
14235;SDS011;7202;50.718;7.072;2023-04-07T07:16:42;25.92;;;15.98;;
14235;SDS011;7202;50.718;7.072;2023-04-07T07:19:11;25.15;;;15.95;;
14235;SDS011;7202;50.718;7.072;2023-04-07T07:21:40;25.58;;;16.40;;
14235;SDS011;7202;50.718;7.072;2023-04-07T07:24:08;24.40;;;15.52;;
14235;SDS011;7202;50.718;7.072;2023-04-07T07:26:38;22.25;;;14.70;;
14235;SDS011;7202;50.718;7.072;2023-04-07T07:29:10;25.65;;;15.50;;
14235;SDS011;7202;50.718;7.072;2023-04-07T07:31:39;29.48;;;15.02;;
14235;SDS011;7202;50.718;7.072;2023-04-07T07:34:07;22.05;;;14.63;;
14235;SDS011;7202;50.718;7.072;2023-04-07T07:36:36;22.42;;;15.02;;
14235;SDS011;7202;50.718;7.072;2023-04-07T07:39:05;22.30;;;14.23;;
14235;SDS011;7202;50.718;7.072;2023-04-07T07:41:33;22.23;;;13.93;;
14235;SDS011;7202;50.718;7.072;2023-04-07T07:44:03;20.83;;;13.70;;
14235;SDS011;7202;50.718;7.072;2023-04-07T07:46:32;21.40;;;13.32;;
14235;SDS011;7202;50.718;7.072;2023-04-07T07:49:01;18.67;;;12.90;;
14235;SDS011;7202;50.718;7.072;2023-04-07T07:51:31;21.38;;;13.02;;
14235;SDS011;7202;50.718;7.072;2023-04-07T07:53:59;22.33;;;13.35;;
14235;SDS011;7202;50.718;7.072;2023-04-07T07:56:28;19.75;;;12.63;;
14235;SDS011;7202;50.718;7.072;2023-04-07T07:58:57;17.15;;;10.95;;
14235;SDS011;7202;50.718;7.072;2023-04-07T08:01:27;13.43;;;9.43;;
14235;SDS011;7202;50.718;7.072;2023-04-07T08:03:55;17.02;;;10.88;;
14235;SDS011;7202;50.718;7.072;2023-04-07T08:06:24;16.70;;;9.60;;
14235;SDS011;7202;50.718;7.072;2023-04-07T08:08:55;11.18;;;8.55;;
14235;SDS011;7202;50.718;7.072;2023-04-07T08:11:24;14.63;;;8.48;;
14235;SDS011;7202;50.718;7.072;2023-04-07T08:13:52;13.52;;;9.02;;
14235;SDS011;7202;50.718;7.072;2023-04-07T08:16:21;13.02;;;8.55;;
14235;SDS011;7202;50.718;7.072;2023-04-07T08:18:51;12.48;;;8.77;;
14235;SDS011;7202;50.718;7.072;2023-04-07T08:21:20;14.45;;;8.45;;
14235;SDS011;7202;50.718;7.072;2023-04-07T08:23:49;13.85;;;7.93;;
14235;SDS011;7202;50.718;7.072;2023-04-07T08:26:17;14.00;;;8.02;;
14235;SDS011;7202;50.718;7.072;2023-04-07T08:28:47;10.77;;;6.95;;
14235;SDS011;7202;50.718;7.072;2023-04-07T08:31:17;8.48;;;6.15;;
14235;SDS011;7202;50.718;7.072;2023-04-07T08:33:46;11.32;;;6.82;;
14235;SDS011;7202;50.718;7.072;2023-04-07T08:36:20;8.05;;;5.63;;
14235;SDS011;7202;50.718;7.072;2023-04-07T08:38:49;10.13;;;6.32;;
14235;SDS011;7202;50.718;7.072;2023-04-07T08:41:20;10.43;;;6.43;;
14235;SDS011;7202;50.718;7.072;2023-04-07T08:43:54;8.15;;;5.43;;
14235;SDS011;7202;50.718;7.072;2023-04-07T08:46:24;7.40;;;5.38;;
14235;SDS011;7202;50.718;7.072;2023-04-07T08:48:54;9.50;;;6.43;;
14235;SDS011;7202;50.718;7.072;2023-04-07T08:51:27;7.43;;;5.38;;
14235;SDS011;7202;50.718;7.072;2023-04-07T08:53:59;12.07;;;5.90;;
14235;SDS011;7202;50.718;7.072;2023-04-07T08:56:32;6.93;;;5.00;;
14235;SDS011;7202;50.718;7.072;2023-04-07T08:59:01;8.25;;;5.10;;
14235;SDS011;7202;50.718;7.072;2023-04-07T09:01:31;8.18;;;5.18;;
14235;SDS011;7202;50.718;7.072;2023-04-07T09:04:02;7.72;;;5.00;;
14235;SDS011;7202;50.718;7.072;2023-04-07T09:06:33;6.85;;;4.32;;
14235;SDS011;7202;50.718;7.072;2023-04-07T09:09:02;6.50;;;4.47;;
14235;SDS011;7202;50.718;7.072;2023-04-07T09:11:34;6.47;;;4.43;;
14235;SDS011;7202;50.718;7.072;2023-04-07T09:14:03;7.82;;;3.83;;
14235;SDS011;7202;50.718;7.072;2023-04-07T09:16:32;7.80;;;4.70;;
14235;SDS011;7202;50.718;7.072;2023-04-07T09:19:01;7.50;;;4.88;;
14235;SDS011;7202;50.718;7.072;2023-04-07T09:24:21;6.88;;;4.45;;
14235;SDS011;7202;50.718;7.072;2023-04-07T09:29:41;7.07;;;5.05;;
14235;SDS011;7202;50.718;7.072;2023-04-07T09:32:11;8.52;;;5.07;;
14235;SDS011;7202;50.718;7.072;2023-04-07T09:34:50;11.23;;;5.15;;
14235;SDS011;7202;50.718;7.072;2023-04-07T09:37:27;9.95;;;5.68;;
14235;SDS011;7202;50.718;7.072;2023-04-07T09:39:56;8.80;;;5.10;;
14235;SDS011;7202;50.718;7.072;2023-04-07T09:42:24;7.20;;;4.90;;
14235;SDS011;7202;50.718;7.072;2023-04-07T09:44:56;9.30;;;5.88;;
14235;SDS011;7202;50.718;7.072;2023-04-07T09:47:25;11.80;;;6.80;;
14235;SDS011;7202;50.718;7.072;2023-04-07T09:49:56;9.50;;;6.35;;
14235;SDS011;7202;50.718;7.072;2023-04-07T09:55:19;11.02;;;6.38;;
14235;SDS011;7202;50.718;7.072;2023-04-07T09:57:48;9.95;;;6.22;;
14235;SDS011;7202;50.718;7.072;2023-04-07T10:00:18;9.35;;;5.65;;
14235;SDS011;7202;50.718;7.072;2023-04-07T10:02:46;7.47;;;5.60;;
14235;SDS011;7202;50.718;7.072;2023-04-07T10:05:17;11.35;;;6.40;;
14235;SDS011;7202;50.718;7.072;2023-04-07T10:07:49;8.45;;;5.68;;
14235;SDS011;7202;50.718;7.072;2023-04-07T10:10:18;7.90;;;5.97;;
14235;SDS011;7202;50.718;7.072;2023-04-07T10:12:47;10.80;;;6.47;;
14235;SDS011;7202;50.718;7.072;2023-04-07T10:15:17;9.80;;;6.60;;
14235;SDS011;7202;50.718;7.072;2023-04-07T10:17:45;12.82;;;7.07;;
14235;SDS011;7202;50.718;7.072;2023-04-07T10:20:15;10.00;;;6.18;;
14235;SDS011;7202;50.718;7.072;2023-04-07T10:22:47;9.38;;;6.20;;
14235;SDS011;7202;50.718;7.072;2023-04-07T10:25:18;9.68;;;6.85;;
14235;SDS011;7202;50.718;7.072;2023-04-07T10:27:50;12.25;;;7.07;;
14235;SDS011;7202;50.718;7.072;2023-04-07T10:30:23;9.18;;;6.03;;
14235;SDS011;7202;50.718;7.072;2023-04-07T10:32:53;9.18;;;6.75;;
14235;SDS011;7202;50.718;7.072;2023-04-07T10:35:22;10.93;;;7.82;;
14235;SDS011;7202;50.718;7.072;2023-04-07T10:38:09;11.38;;;7.43;;
14235;SDS011;7202;50.718;7.072;2023-04-07T10:40:41;10.30;;;6.90;;
14235;SDS011;7202;50.718;7.072;2023-04-07T10:43:10;9.10;;;6.90;;
14235;SDS011;7202;50.718;7.072;2023-04-07T10:45:52;10.20;;;6.50;;
14235;SDS011;7202;50.718;7.072;2023-04-07T10:48:26;8.15;;;5.30;;
14235;SDS011;7202;50.718;7.072;2023-04-07T10:51:14;6.97;;;5.28;;
14235;SDS011;7202;50.718;7.072;2023-04-07T10:57:06;8.05;;;5.25;;
14235;SDS011;7202;50.718;7.072;2023-04-07T10:59:41;12.18;;;5.60;;
14235;SDS011;7202;50.718;7.072;2023-04-07T11:02:33;7.97;;;5.53;;
14235;SDS011;7202;50.718;7.072;2023-04-07T11:05:02;12.90;;;6.18;;
14235;SDS011;7202;50.718;7.072;2023-04-07T11:07:44;10.90;;;6.18;;
14235;SDS011;7202;50.718;7.072;2023-04-07T11:10:23;9.30;;;6.40;;
14235;SDS011;7202;50.718;7.072;2023-04-07T11:13:00;13.13;;;7.03;;
14235;SDS011;7202;50.718;7.072;2023-04-07T11:15:31;12.00;;;7.35;;
14235;SDS011;7202;50.718;7.072;2023-04-07T11:18:05;11.73;;;7.63;;
14235;SDS011;7202;50.718;7.072;2023-04-07T11:20:45;12.93;;;7.07;;
14235;SDS011;7202;50.718;7.072;2023-04-07T11:23:19;12.57;;;7.57;;
14235;SDS011;7202;50.718;7.072;2023-04-07T11:25:51;12.55;;;7.93;;
14235;SDS011;7202;50.718;7.072;2023-04-07T11:28:28;13.05;;;8.57;;
14235;SDS011;7202;50.718;7.072;2023-04-07T11:30:57;12.45;;;8.25;;
14235;SDS011;7202;50.718;7.072;2023-04-07T11:33:27;11.65;;;7.50;;
14235;SDS011;7202;50.718;7.072;2023-04-07T11:35:58;12.70;;;8.20;;
14235;SDS011;7202;50.718;7.072;2023-04-07T11:38:28;13.85;;;8.15;;
14235;SDS011;7202;50.718;7.072;2023-04-07T11:41:09;12.40;;;8.55;;
14235;SDS011;7202;50.718;7.072;2023-04-07T11:43:40;14.27;;;8.32;;
14235;SDS011;7202;50.718;7.072;2023-04-07T11:46:09;12.65;;;8.65;;
14235;SDS011;7202;50.718;7.072;2023-04-07T11:48:40;14.52;;;7.97;;
14235;SDS011;7202;50.718;7.072;2023-04-07T11:51:15;14.23;;;8.43;;
14235;SDS011;7202;50.718;7.072;2023-04-07T11:53:45;10.90;;;7.75;;
14235;SDS011;7202;50.718;7.072;2023-04-07T11:56:15;12.90;;;8.65;;
14235;SDS011;7202;50.718;7.072;2023-04-07T11:58:49;11.60;;;8.10;;
14235;SDS011;7202;50.718;7.072;2023-04-07T12:01:18;12.98;;;8.60;;
14235;SDS011;7202;50.718;7.072;2023-04-07T12:03:54;14.98;;;8.63;;
14235;SDS011;7202;50.718;7.072;2023-04-07T12:06:26;12.02;;;8.70;;
14235;SDS011;7202;50.718;7.072;2023-04-07T12:08:56;12.38;;;8.13;;
14235;SDS011;7202;50.718;7.072;2023-04-07T12:11:25;14.25;;;8.43;;
14235;SDS011;7202;50.718;7.072;2023-04-07T12:13:54;14.48;;;9.52;;
14235;SDS011;7202;50.718;7.072;2023-04-07T12:16:23;16.77;;;11.30;;
14235;SDS011;7202;50.718;7.072;2023-04-07T12:18:52;21.40;;;11.93;;
14235;SDS011;7202;50.718;7.072;2023-04-07T12:21:21;19.15;;;12.63;;
14235;SDS011;7202;50.718;7.072;2023-04-07T12:23:50;19.15;;;12.35;;
14235;SDS011;7202;50.718;7.072;2023-04-07T12:26:18;16.77;;;10.50;;
14235;SDS011;7202;50.718;7.072;2023-04-07T12:28:49;18.42;;;11.48;;
14235;SDS011;7202;50.718;7.072;2023-04-07T12:31:19;15.63;;;11.10;;
14235;SDS011;7202;50.718;7.072;2023-04-07T12:33:48;17.08;;;11.07;;
14235;SDS011;7202;50.718;7.072;2023-04-07T12:36:17;15.80;;;11.23;;
14235;SDS011;7202;50.718;7.072;2023-04-07T12:38:46;17.55;;;11.60;;
14235;SDS011;7202;50.718;7.072;2023-04-07T12:41:14;17.05;;;11.75;;
14235;SDS011;7202;50.718;7.072;2023-04-07T12:43:43;18.65;;;11.55;;
14235;SDS011;7202;50.718;7.072;2023-04-07T12:46:13;22.70;;;12.15;;
14235;SDS011;7202;50.718;7.072;2023-04-07T12:48:43;20.23;;;11.88;;
14235;SDS011;7202;50.718;7.072;2023-04-07T12:51:11;21.15;;;11.98;;
14235;SDS011;7202;50.718;7.072;2023-04-07T12:53:40;19.10;;;12.82;;
14235;SDS011;7202;50.718;7.072;2023-04-07T12:56:09;18.75;;;11.82;;
14235;SDS011;7202;50.718;7.072;2023-04-07T12:58:38;18.05;;;11.45;;
14235;SDS011;7202;50.718;7.072;2023-04-07T13:01:07;14.77;;;10.02;;
14235;SDS011;7202;50.718;7.072;2023-04-07T13:03:36;15.32;;;10.13;;
14235;SDS011;7202;50.718;7.072;2023-04-07T13:06:06;17.52;;;9.90;;
14235;SDS011;7202;50.718;7.072;2023-04-07T13:08:36;16.35;;;10.27;;
14235;SDS011;7202;50.718;7.072;2023-04-07T13:11:05;19.02;;;10.02;;
14235;SDS011;7202;50.718;7.072;2023-04-07T13:13:37;13.23;;;9.52;;
14235;SDS011;7202;50.718;7.072;2023-04-07T13:16:06;13.50;;;9.63;;
14235;SDS011;7202;50.718;7.072;2023-04-07T13:18:35;14.48;;;9.85;;
14235;SDS011;7202;50.718;7.072;2023-04-07T13:21:04;15.50;;;10.07;;
14235;SDS011;7202;50.718;7.072;2023-04-07T13:23:54;15.48;;;10.60;;
14235;SDS011;7202;50.718;7.072;2023-04-07T13:26:23;19.23;;;10.73;;
14235;SDS011;7202;50.718;7.072;2023-04-07T13:28:52;16.27;;;10.07;;
14235;SDS011;7202;50.718;7.072;2023-04-07T13:31:21;16.20;;;10.95;;
14235;SDS011;7202;50.718;7.072;2023-04-07T13:33:49;14.75;;;10.38;;
14235;SDS011;7202;50.718;7.072;2023-04-07T13:36:18;14.55;;;9.65;;
14235;SDS011;7202;50.718;7.072;2023-04-07T13:38:49;16.67;;;10.82;;
14235;SDS011;7202;50.718;7.072;2023-04-07T13:41:19;17.92;;;10.15;;
14235;SDS011;7202;50.718;7.072;2023-04-07T13:43:48;16.13;;;10.98;;
14235;SDS011;7202;50.718;7.072;2023-04-07T13:46:17;16.63;;;10.68;;
14235;SDS011;7202;50.718;7.072;2023-04-07T13:48:55;17.80;;;11.40;;
14235;SDS011;7202;50.718;7.072;2023-04-07T13:51:23;16.48;;;11.00;;
14235;SDS011;7202;50.718;7.072;2023-04-07T13:53:54;14.30;;;9.85;;
14235;SDS011;7202;50.718;7.072;2023-04-07T13:56:24;16.30;;;11.77;;
14235;SDS011;7202;50.718;7.072;2023-04-07T13:58:52;14.10;;;10.57;;
14235;SDS011;7202;50.718;7.072;2023-04-07T14:01:21;14.93;;;10.20;;
14235;SDS011;7202;50.718;7.072;2023-04-07T14:03:50;15.98;;;10.23;;
14235;SDS011;7202;50.718;7.072;2023-04-07T14:06:20;17.13;;;10.82;;
14235;SDS011;7202;50.718;7.072;2023-04-07T14:08:48;19.17;;;11.38;;
14235;SDS011;7202;50.718;7.072;2023-04-07T14:11:17;17.88;;;10.60;;
14235;SDS011;7202;50.718;7.072;2023-04-07T14:13:49;19.75;;;11.00;;
14235;SDS011;7202;50.718;7.072;2023-04-07T14:16:19;15.50;;;10.60;;
14235;SDS011;7202;50.718;7.072;2023-04-07T14:18:49;14.30;;;10.85;;
14235;SDS011;7202;50.718;7.072;2023-04-07T14:21:17;14.85;;;10.70;;
14235;SDS011;7202;50.718;7.072;2023-04-07T14:23:46;17.48;;;11.25;;
14235;SDS011;7202;50.718;7.072;2023-04-07T14:26:14;17.20;;;11.80;;
14235;SDS011;7202;50.718;7.072;2023-04-07T14:28:43;16.95;;;11.52;;
14235;SDS011;7202;50.718;7.072;2023-04-07T14:31:15;19.45;;;11.50;;
14235;SDS011;7202;50.718;7.072;2023-04-07T14:33:44;17.88;;;12.52;;
14235;SDS011;7202;50.718;7.072;2023-04-07T14:36:13;16.90;;;12.45;;
14235;SDS011;7202;50.718;7.072;2023-04-07T14:38:43;16.70;;;12.18;;
14235;SDS011;7202;50.718;7.072;2023-04-07T14:41:12;17.70;;;12.40;;
14235;SDS011;7202;50.718;7.072;2023-04-07T14:43:40;18.60;;;12.55;;
14235;SDS011;7202;50.718;7.072;2023-04-07T14:46:09;22.98;;;13.27;;
14235;SDS011;7202;50.718;7.072;2023-04-07T14:48:42;19.23;;;13.23;;
14235;SDS011;7202;50.718;7.072;2023-04-07T14:51:12;19.48;;;12.55;;
14235;SDS011;7202;50.718;7.072;2023-04-07T14:53:41;17.50;;;12.20;;
14235;SDS011;7202;50.718;7.072;2023-04-07T14:56:12;17.00;;;11.07;;
14235;SDS011;7202;50.718;7.072;2023-04-07T14:58:40;13.27;;;10.38;;
14235;SDS011;7202;50.718;7.072;2023-04-07T15:01:09;15.85;;;10.52;;
14235;SDS011;7202;50.718;7.072;2023-04-07T15:03:38;15.45;;;11.18;;
14235;SDS011;7202;50.718;7.072;2023-04-07T15:06:10;17.67;;;10.50;;
14235;SDS011;7202;50.718;7.072;2023-04-07T15:08:39;15.95;;;9.43;;
14235;SDS011;7202;50.718;7.072;2023-04-07T15:11:08;14.65;;;9.63;;
14235;SDS011;7202;50.718;7.072;2023-04-07T15:13:37;13.88;;;10.38;;
14235;SDS011;7202;50.718;7.072;2023-04-07T15:16:06;14.60;;;9.75;;